createdAt,value
2022-11-01T00:00:53.639Z,9.279846
2022-11-01T00:01:53.714Z,9.279722
2022-11-01T00:02:53.594Z,9.279828
2022-11-01T00:03:53.576Z,9.279841
2022-11-01T00:04:53.631Z,9.279852
2022-11-01T00:05:53.526Z,9.279851
2022-11-01T00:06:53.537Z,9.279825
2022-11-01T00:07:53.487Z,9.279817
2022-11-01T00:08:53.464Z,9.279821
2022-11-01T00:09:54.157Z,9.279827
2022-11-01T00:10:53.422Z,9.279865
2022-11-01T00:11:53.428Z,9.279835
2022-11-01T00:12:53.382Z,9.279945
2022-11-01T00:13:53.360Z,9.279855
2022-11-01T00:14:54.271Z,9.279929
2022-11-01T00:15:53.317Z,9.279896
2022-11-01T00:16:53.326Z,9.279974
2022-11-01T00:17:53.272Z,9.279984
2022-11-01T00:18:53.250Z,9.279835
2022-11-01T00:19:53.230Z,9.279877
2022-11-01T00:20:53.214Z,9.279788
2022-11-01T00:21:53.250Z,9.280022
2022-11-01T00:22:53.168Z,9.279892
2022-11-01T00:23:53.148Z,9.279825
2022-11-01T00:24:54.916Z,9.279754
2022-11-01T00:25:54.101Z,9.279637
2022-11-01T00:26:53.117Z,9.279616
2022-11-01T00:27:53.065Z,9.279726
2022-11-01T00:28:53.052Z,9.279860
2022-11-01T00:29:53.019Z,9.279952
2022-11-01T00:30:52.998Z,9.279964
2022-11-01T00:31:53.003Z,9.279946
2022-11-01T00:32:52.957Z,9.279871
2022-11-01T00:33:52.933Z,9.279914
2022-11-01T00:34:52.912Z,9.279761
2022-11-01T00:35:52.889Z,9.279774
2022-11-01T00:36:52.896Z,9.279802
2022-11-01T00:37:52.846Z,9.279652
2022-11-01T00:38:52.825Z,9.279902
2022-11-01T00:39:52.806Z,9.279824
2022-11-01T00:40:52.794Z,9.279830
2022-11-01T00:41:52.786Z,9.279896
2022-11-01T00:42:52.741Z,9.279898
2022-11-01T00:43:52.715Z,9.279948
2022-11-01T00:44:53.702Z,9.279858
2022-11-01T00:45:52.682Z,9.279848
2022-11-01T00:46:52.690Z,9.279927
2022-11-01T00:47:52.665Z,9.279916
2022-11-01T00:48:52.619Z,9.279943
2022-11-01T00:49:52.598Z,9.279909
2022-11-01T00:50:52.575Z,9.279850
2022-11-01T00:51:52.585Z,9.279883
2022-11-01T00:52:52.530Z,9.279911
2022-11-01T00:53:52.513Z,9.279803
2022-11-01T00:54:52.487Z,9.279796
2022-11-01T00:55:52.467Z,9.280027
2022-11-01T00:56:52.476Z,9.279888
2022-11-01T00:57:52.423Z,9.280064
2022-11-01T00:58:52.407Z,9.280111
2022-11-01T01:00:52.392Z,9.279980
2022-11-01T01:01:52.477Z,9.279974
2022-11-01T01:02:53.152Z,9.279966
2022-11-01T01:03:52.300Z,9.279982
2022-11-01T01:04:52.281Z,9.279987
2022-11-01T01:05:52.255Z,9.280073
2022-11-01T01:06:52.265Z,9.279985
2022-11-01T01:07:52.212Z,9.280015
2022-11-01T01:08:52.193Z,9.279985
2022-11-01T01:09:52.172Z,9.280038
2022-11-01T01:10:52.149Z,9.279941
2022-11-01T01:11:52.166Z,9.279987
2022-11-01T01:12:52.098Z,9.279987
2022-11-01T01:13:53.086Z,9.279956
2022-11-01T01:14:52.066Z,9.280065
2022-11-01T01:15:52.039Z,9.280030
2022-11-01T01:16:52.048Z,9.279916
2022-11-01T01:17:51.996Z,9.279953
2022-11-01T01:18:51.974Z,9.279935
2022-11-01T01:19:51.952Z,9.279952
2022-11-01T01:20:51.958Z,9.279873
2022-11-01T01:21:52.649Z,9.279977
2022-11-01T01:22:51.892Z,9.280024
2022-11-01T01:23:51.866Z,9.279941
2022-11-01T01:24:51.843Z,9.279944
2022-11-01T01:25:51.862Z,9.279945
2022-11-01T01:26:51.807Z,9.279968
2022-11-01T01:27:51.780Z,9.279929
2022-11-01T01:28:51.755Z,9.279956
2022-11-01T01:29:51.736Z,9.279947
2022-11-01T01:30:52.646Z,9.279952
2022-11-01T01:31:51.688Z,9.279900
2022-11-01T01:32:51.666Z,9.279954
2022-11-01T01:33:51.650Z,9.279927
2022-11-01T01:34:51.618Z,9.279983
2022-11-01T01:35:51.626Z,9.279960
2022-11-01T01:36:51.574Z,9.279947
2022-11-01T01:37:51.553Z,9.279895
2022-11-01T01:38:51.527Z,9.279968
2022-11-01T01:39:51.509Z,9.279954
2022-11-01T01:40:51.508Z,9.279935
2022-11-01T01:41:51.463Z,9.279917
2022-11-01T01:42:51.438Z,9.279863
2022-11-01T01:43:51.417Z,9.280012
2022-11-01T01:44:51.395Z,9.279990
2022-11-01T01:45:51.495Z,9.279936
2022-11-01T01:46:51.349Z,9.279965
2022-11-01T01:47:51.329Z,9.279929
2022-11-01T01:48:51.302Z,9.279882
2022-11-01T01:49:51.284Z,9.279954
2022-11-01T01:50:51.286Z,9.279909
2022-11-01T01:51:51.240Z,9.279985
2022-11-01T01:52:51.220Z,9.279983
2022-11-01T01:53:51.196Z,9.279970
2022-11-01T01:54:51.171Z,9.279995
2022-11-01T01:55:51.181Z,9.280047
2022-11-01T01:56:51.129Z,9.280023
2022-11-01T01:57:51.133Z,9.280003
2022-11-01T01:58:51.081Z,9.279935
2022-11-01T01:59:51.056Z,9.279916
2022-11-01T02:00:51.143Z,9.279929
2022-11-01T02:01:51.127Z,9.280055
2022-11-01T02:02:50.992Z,9.280036
2022-11-01T02:03:50.970Z,9.280047
2022-11-01T02:04:50.944Z,9.280054
2022-11-01T02:05:50.923Z,9.280066
2022-11-01T02:06:50.940Z,9.279983
2022-11-01T02:07:50.880Z,9.280034
2022-11-01T02:08:50.853Z,9.280006
2022-11-01T02:09:50.834Z,9.280065
2022-11-01T02:10:50.810Z,9.280026
2022-11-01T02:11:50.814Z,9.279983
2022-11-01T02:12:50.792Z,9.280001
2022-11-01T02:13:50.742Z,9.280061
2022-11-01T02:14:50.721Z,9.280049
2022-11-01T02:15:50.697Z,9.279921
2022-11-01T02:16:50.694Z,9.279840
2022-11-01T02:17:51.658Z,9.279991
2022-11-01T02:18:50.630Z,9.280010
2022-11-01T02:19:50.607Z,9.280011
2022-11-01T02:20:50.587Z,9.280031
2022-11-01T02:21:50.592Z,9.280004
2022-11-01T02:22:50.548Z,9.279973
2022-11-01T02:23:50.530Z,9.279947
2022-11-01T02:24:50.502Z,9.280035
2022-11-01T02:25:50.482Z,9.280001
2022-11-01T02:26:50.487Z,9.280072
2022-11-01T02:27:52.133Z,9.280141
2022-11-01T02:28:50.415Z,9.280036
2022-11-01T02:29:50.388Z,9.279929
2022-11-01T02:30:51.130Z,9.279983
2022-11-01T02:31:50.375Z,9.279996
2022-11-01T02:32:50.319Z,9.280031
2022-11-01T02:33:50.297Z,9.280031
2022-11-01T02:34:50.278Z,9.280042
2022-11-01T02:35:50.264Z,9.279984
2022-11-01T02:36:50.262Z,9.279965
2022-11-01T02:37:50.211Z,9.279963
2022-11-01T02:38:50.191Z,9.280027
2022-11-01T02:39:50.173Z,9.279989
2022-11-01T02:40:50.151Z,9.279994
2022-11-01T02:41:50.148Z,9.280062
2022-11-01T02:42:50.100Z,9.280002
2022-11-01T02:43:50.079Z,9.280060
2022-11-01T02:44:50.634Z,9.280020
2022-11-01T02:45:50.037Z,9.279983
2022-11-01T02:46:50.043Z,9.279952
2022-11-01T02:47:49.992Z,9.280010
2022-11-01T02:48:49.972Z,9.279984
2022-11-01T02:49:49.948Z,9.280005
2022-11-01T02:50:49.932Z,9.280034
2022-11-01T02:51:49.931Z,9.280045
2022-11-01T02:52:49.886Z,9.280059
2022-11-01T02:53:49.857Z,9.279996
2022-11-01T02:54:49.835Z,9.280025
2022-11-01T02:55:49.830Z,9.280006
2022-11-01T02:56:49.821Z,9.279995
2022-11-01T02:57:49.772Z,9.279928
2022-11-01T02:58:49.751Z,9.279928
2022-11-01T02:59:49.724Z,9.279991
2022-11-01T03:00:49.724Z,9.279979
2022-11-01T03:01:49.766Z,9.280035
2022-11-01T03:02:49.734Z,9.280001
2022-11-01T03:03:49.642Z,9.280018
2022-11-01T03:04:49.620Z,9.279984
2022-11-01T03:05:49.597Z,9.280050
2022-11-01T03:06:49.605Z,9.280039
2022-11-01T03:07:49.550Z,9.280063
2022-11-01T03:08:49.569Z,9.280027
2022-11-01T03:09:49.509Z,9.279952
2022-11-01T03:10:49.491Z,9.280025
2022-11-01T03:11:49.490Z,9.280117
2022-11-01T03:12:49.444Z,9.280102
2022-11-01T03:13:49.429Z,9.280007
2022-11-01T03:14:49.406Z,9.280052
2022-11-01T03:15:49.381Z,9.280101
2022-11-01T03:16:49.384Z,9.280104
2022-11-01T03:17:49.343Z,9.280089
2022-11-01T03:18:49.318Z,9.280031
2022-11-01T03:19:49.291Z,9.279951
2022-11-01T03:20:49.271Z,9.279945
2022-11-01T03:21:49.272Z,9.280085
2022-11-01T03:22:49.229Z,9.280000
2022-11-01T03:23:49.208Z,9.280062
2022-11-01T03:24:49.183Z,9.280062
2022-11-01T03:25:49.160Z,9.279901
2022-11-01T03:26:49.169Z,9.279871
2022-11-01T03:27:49.117Z,9.280019
2022-11-01T03:28:49.136Z,9.279975
2022-11-01T03:29:49.070Z,9.279993
2022-11-01T03:30:49.048Z,9.280138
2022-11-01T03:31:49.053Z,9.280003
2022-11-01T03:32:49.009Z,9.279935
2022-11-01T03:33:48.986Z,9.280019
2022-11-01T03:34:48.957Z,9.280138
2022-11-01T03:35:48.943Z,9.280091
2022-11-01T03:36:48.938Z,9.280036
2022-11-01T03:37:48.893Z,9.280029
2022-11-01T03:38:48.871Z,9.279984
2022-11-01T03:39:48.848Z,9.280038
2022-11-01T03:40:48.828Z,9.280030
2022-11-01T03:41:48.828Z,9.280045
2022-11-01T03:42:48.777Z,9.280152
2022-11-01T03:43:48.757Z,9.280045
2022-11-01T03:44:49.235Z,9.279933
2022-11-01T03:45:48.711Z,9.279971
2022-11-01T03:46:48.714Z,9.280025
2022-11-01T03:47:48.665Z,9.280025
2022-11-01T03:48:48.649Z,9.280005
2022-11-01T03:49:48.621Z,9.280089
2022-11-01T03:50:48.599Z,9.280053
2022-11-01T03:51:48.602Z,9.279993
2022-11-01T03:52:48.557Z,9.279973
2022-11-01T03:53:48.536Z,9.280050
2022-11-01T03:54:49.120Z,9.280005
2022-11-01T03:55:48.494Z,9.279995
2022-11-01T03:56:48.496Z,9.279980
2022-11-01T03:57:48.447Z,9.279988
2022-11-01T03:58:48.449Z,9.279890
2022-11-01T03:59:48.404Z,9.279881
2022-11-01T04:00:48.451Z,9.279889
2022-11-01T04:01:48.459Z,9.279863
2022-11-01T04:02:48.339Z,9.280000
2022-11-01T04:03:48.312Z,9.279967
2022-11-01T04:04:48.294Z,9.279892
2022-11-01T04:05:48.270Z,9.280034
2022-11-01T04:06:48.273Z,9.280023
2022-11-01T04:07:48.220Z,9.279979
2022-11-01T04:08:48.207Z,9.280011
2022-11-01T04:09:48.171Z,9.279956
2022-11-01T04:10:49.161Z,9.279916
2022-11-01T04:11:48.160Z,9.279926
2022-11-01T04:12:48.114Z,9.279921
2022-11-01T04:13:48.090Z,9.279937
2022-11-01T04:14:48.069Z,9.279920
2022-11-01T04:15:48.051Z,9.280027
2022-11-01T04:16:48.049Z,9.280063
2022-11-01T04:17:47.999Z,9.280064
2022-11-01T04:18:47.983Z,9.279955
2022-11-01T04:19:47.952Z,9.279980
2022-11-01T04:20:47.964Z,9.280025
2022-11-01T04:21:47.937Z,9.279980
2022-11-01T04:22:47.884Z,9.279989
2022-11-01T04:23:47.863Z,9.279998
2022-11-01T04:24:48.728Z,9.280004
2022-11-01T04:25:47.824Z,9.280000
2022-11-01T04:26:47.818Z,9.279915
2022-11-01T04:27:48.778Z,9.279969
2022-11-01T04:28:47.757Z,9.279989
2022-11-01T04:29:47.732Z,9.279948
2022-11-01T04:30:47.719Z,9.279986
2022-11-01T04:31:47.717Z,9.280027
2022-11-01T04:32:47.669Z,9.280094
2022-11-01T04:33:47.646Z,9.279954
2022-11-01T04:34:47.623Z,9.279904
2022-11-01T04:35:47.601Z,9.279944
2022-11-01T04:36:47.602Z,9.279871
2022-11-01T04:37:47.549Z,9.279917
2022-11-01T04:38:47.529Z,9.279951
2022-11-01T04:39:47.508Z,9.279960
2022-11-01T04:40:47.484Z,9.279906
2022-11-01T04:41:47.491Z,9.279902
2022-11-01T04:42:47.440Z,9.279922
2022-11-01T04:43:48.110Z,9.279873
2022-11-01T04:44:47.395Z,9.279998
2022-11-01T04:45:47.373Z,9.279971
2022-11-01T04:46:47.375Z,9.279966
2022-11-01T04:47:47.331Z,9.279917
2022-11-01T04:48:47.310Z,9.279954
2022-11-01T04:49:47.266Z,9.279962
2022-11-01T04:50:47.260Z,9.279923
2022-11-01T04:51:47.269Z,9.279901
2022-11-01T04:52:47.215Z,9.279945
2022-11-01T04:53:47.192Z,9.279870
2022-11-01T04:54:47.173Z,9.279823
2022-11-01T04:55:47.151Z,9.279799
2022-11-01T04:56:47.153Z,9.279979
2022-11-01T04:57:47.110Z,9.279919
2022-11-01T04:58:47.069Z,9.279871
2022-11-01T04:59:48.060Z,9.279841
2022-11-01T05:00:47.077Z,9.279932
2022-11-01T05:01:47.093Z,9.279933
2022-11-01T05:02:46.991Z,9.279862
2022-11-01T05:03:46.973Z,9.279955
2022-11-01T05:04:46.949Z,9.279832
2022-11-01T05:05:46.927Z,9.279723
2022-11-01T05:06:46.941Z,9.279834
2022-11-01T05:07:46.893Z,9.279956
2022-11-01T05:08:46.864Z,9.279850
2022-11-01T05:09:46.844Z,9.279820
2022-11-01T05:10:46.823Z,9.279823
2022-11-01T05:11:46.830Z,9.279938
2022-11-01T05:12:46.774Z,9.279917
2022-11-01T05:13:46.747Z,9.280004
2022-11-01T05:14:46.730Z,9.279978
2022-11-01T05:15:59.583Z,9.279969
2022-11-01T05:16:48.709Z,9.279892
2022-11-01T05:17:46.664Z,9.279954
2022-11-01T05:18:46.677Z,9.279988
2022-11-01T05:19:46.682Z,9.279889
2022-11-01T05:20:46.595Z,9.279911
2022-11-01T05:21:46.598Z,9.279942
2022-11-01T05:22:46.557Z,9.279925
2022-11-01T05:23:46.542Z,9.279857
2022-11-01T05:24:46.508Z,9.279966
2022-11-01T05:25:46.483Z,9.279899
2022-11-01T05:26:46.487Z,9.279881
2022-11-01T05:27:46.440Z,9.279911
2022-11-01T05:28:46.414Z,9.279892
2022-11-01T05:29:46.391Z,9.279986
2022-11-01T05:30:46.366Z,9.279846
2022-11-01T05:31:46.377Z,9.279828
2022-11-01T05:32:46.325Z,9.279832
2022-11-01T05:33:47.216Z,9.279923
2022-11-01T05:34:46.284Z,9.279743
2022-11-01T05:35:46.255Z,9.279849
2022-11-01T05:36:46.261Z,9.279968
2022-11-01T05:37:46.214Z,9.279877
2022-11-01T05:38:46.192Z,9.279900
2022-11-01T05:39:46.168Z,9.279996
2022-11-01T05:40:46.718Z,9.279931
2022-11-01T05:41:46.151Z,9.279939
2022-11-01T05:42:46.098Z,9.279941
2022-11-01T05:43:46.080Z,9.279880
2022-11-01T05:44:46.094Z,9.279834
2022-11-01T05:45:46.036Z,9.279821
2022-11-01T05:46:46.039Z,9.279795
2022-11-01T05:47:46.713Z,9.279836
2022-11-01T05:48:46.714Z,9.279909
2022-11-01T05:49:45.948Z,9.279945
2022-11-01T05:50:45.924Z,9.279971
2022-11-01T05:51:45.927Z,9.280079
2022-11-01T05:52:45.877Z,9.280009
2022-11-01T05:53:45.854Z,9.280033
2022-11-01T05:54:45.835Z,9.279940
2022-11-01T05:55:45.812Z,9.279917
2022-11-01T05:56:45.824Z,9.279836
2022-11-01T05:57:45.765Z,9.279878
2022-11-01T05:58:45.750Z,9.279880
2022-11-01T05:59:45.723Z,9.279840
2022-11-01T06:00:46.211Z,9.279886
2022-11-01T06:01:45.801Z,9.279981
2022-11-01T06:02:45.711Z,9.279901
2022-11-01T06:03:45.633Z,9.279891
2022-11-01T06:04:45.612Z,9.279891
2022-11-01T06:05:45.590Z,9.279857
2022-11-01T06:06:45.596Z,9.279883
2022-11-01T06:07:45.543Z,9.279901
2022-11-01T06:08:45.523Z,9.279901
2022-11-01T06:09:45.496Z,9.279906
2022-11-01T06:10:45.478Z,9.279960
2022-11-01T06:11:45.481Z,9.279862
2022-11-01T06:12:45.434Z,9.279933
2022-11-01T06:13:45.412Z,9.279989
2022-11-01T06:14:45.390Z,9.279984
2022-11-01T06:15:45.364Z,9.279959
2022-11-01T06:16:45.369Z,9.279991
2022-11-01T06:17:45.319Z,9.279864
2022-11-01T06:18:45.295Z,9.279849
2022-11-01T06:19:45.272Z,9.279868
2022-11-01T06:20:45.255Z,9.279920
2022-11-01T06:21:45.259Z,9.279964
2022-11-01T06:22:45.236Z,9.280009
2022-11-01T06:23:45.185Z,9.280051
2022-11-01T06:24:45.162Z,9.280008
2022-11-01T06:25:45.137Z,9.280061
2022-11-01T06:26:45.141Z,9.280010
2022-11-01T06:27:45.116Z,9.279952
2022-11-01T06:28:45.091Z,9.280036
2022-11-01T06:29:45.054Z,9.279963
2022-11-01T06:30:45.024Z,9.279904
2022-11-01T06:31:44.998Z,9.279793
2022-11-01T06:32:45.007Z,9.279911
2022-11-01T06:33:44.954Z,9.279956
2022-11-01T06:34:45.136Z,9.279980
2022-11-01T06:35:44.910Z,9.280100
2022-11-01T06:36:44.887Z,9.279963
2022-11-01T06:37:44.893Z,9.279937
2022-11-01T06:38:44.842Z,9.279963
2022-11-01T06:39:44.822Z,9.279861
2022-11-01T06:40:44.799Z,9.279853
2022-11-01T06:41:44.781Z,9.279962
2022-11-01T06:42:46.457Z,9.279975
2022-11-01T06:43:44.734Z,9.280002
2022-11-01T06:44:44.714Z,9.280003
2022-11-01T06:45:44.691Z,9.279926
2022-11-01T06:46:44.670Z,9.280008
2022-11-01T06:47:44.682Z,9.279942
2022-11-01T06:48:44.625Z,9.279876
2022-11-01T06:49:44.599Z,9.279953
2022-11-01T06:50:44.574Z,9.280022
2022-11-01T06:51:44.557Z,9.280018
2022-11-01T06:52:44.560Z,9.280007
2022-11-01T06:53:44.515Z,9.279856
2022-11-01T06:54:44.487Z,9.279799
2022-11-01T06:55:44.467Z,9.279904
2022-11-01T06:56:44.488Z,9.279902
2022-11-01T06:57:44.451Z,9.279964
2022-11-01T06:58:44.396Z,9.279904
2022-11-01T06:59:44.375Z,9.279856
2022-11-01T07:00:45.103Z,9.279938
2022-11-01T07:01:44.531Z,9.280023
2022-11-01T07:02:44.405Z,9.280007
2022-11-01T07:03:44.284Z,9.279957
2022-11-01T07:04:44.263Z,9.279988
2022-11-01T07:05:44.276Z,9.279919
2022-11-01T07:06:44.223Z,9.279913
2022-11-01T07:07:44.226Z,9.279960
2022-11-01T07:08:44.181Z,9.279897
2022-11-01T07:09:44.161Z,9.279883
2022-11-01T07:10:44.135Z,9.279901
2022-11-01T07:11:44.107Z,9.279889
2022-11-01T07:12:44.115Z,9.279902
2022-11-01T07:13:44.069Z,9.279939
2022-11-01T07:14:44.040Z,9.279951
2022-11-01T07:15:44.017Z,9.279917
2022-11-01T07:16:43.999Z,9.279968
2022-11-01T07:17:44.008Z,9.280002
2022-11-01T07:18:43.962Z,9.279979
2022-11-01T07:19:43.931Z,9.279950
2022-11-01T07:20:43.990Z,9.279983
2022-11-01T07:21:43.886Z,9.279943
2022-11-01T07:22:43.890Z,9.279950
2022-11-01T07:23:43.869Z,9.279904
2022-11-01T07:24:43.819Z,9.279905
2022-11-01T07:25:43.801Z,9.279875
2022-11-01T07:26:43.777Z,9.279865
2022-11-01T07:27:43.788Z,9.279860
2022-11-01T07:28:43.734Z,9.279882
2022-11-01T07:29:43.726Z,9.279898
2022-11-01T07:30:43.692Z,9.279815
2022-11-01T07:31:43.670Z,9.279920
2022-11-01T07:32:43.647Z,9.279970
2022-11-01T07:33:43.650Z,9.280066
2022-11-01T07:34:43.601Z,9.279993
2022-11-01T07:35:43.743Z,9.279907
2022-11-01T07:36:43.561Z,9.279908
2022-11-01T07:37:43.564Z,9.279895
2022-11-01T07:38:43.528Z,9.279909
2022-11-01T07:39:43.491Z,9.279959
2022-11-01T07:40:43.485Z,9.279872
2022-11-01T07:41:43.448Z,9.279889
2022-11-01T07:42:43.465Z,9.279904
2022-11-01T07:43:43.403Z,9.279891
2022-11-01T07:44:43.384Z,9.279924
2022-11-01T07:45:43.359Z,9.279832
2022-11-01T07:46:44.151Z,9.279966
2022-11-01T07:47:43.340Z,9.279959
2022-11-01T07:48:43.292Z,9.279869
2022-11-01T07:49:43.271Z,9.279862
2022-11-01T07:50:43.247Z,9.279874
2022-11-01T07:51:43.227Z,9.279888
2022-11-01T07:52:43.236Z,9.279885
2022-11-01T07:53:43.180Z,9.279869
2022-11-01T07:54:43.157Z,9.279801
2022-11-01T07:55:43.133Z,9.279855
2022-11-01T07:56:43.115Z,9.279917
2022-11-01T07:57:43.116Z,9.279776
2022-11-01T07:58:43.701Z,9.279827
2022-11-01T07:59:44.047Z,9.279885
2022-11-01T08:00:43.050Z,9.279918
2022-11-01T08:01:43.228Z,9.279846
2022-11-01T08:02:43.006Z,9.279952
2022-11-01T08:03:42.953Z,9.279943
2022-11-01T08:04:42.935Z,9.279820
2022-11-01T08:05:42.912Z,9.279888
2022-11-01T08:06:44.946Z,9.279796
2022-11-01T08:07:44.691Z,9.279681
2022-11-01T08:08:42.843Z,9.279741
2022-11-01T08:09:42.816Z,9.279912
2022-11-01T08:10:42.800Z,9.279958
2022-11-01T08:11:42.779Z,9.279933
2022-11-01T08:12:42.784Z,9.279856
2022-11-01T08:13:42.739Z,9.279750
2022-11-01T08:14:42.716Z,9.279809
2022-11-01T08:15:42.690Z,9.279800
2022-11-01T08:16:42.666Z,9.279902
2022-11-01T08:17:42.670Z,9.279815
2022-11-01T08:18:43.188Z,9.279933
2022-11-01T08:19:42.601Z,9.279875
2022-11-01T08:20:42.580Z,9.279831
2022-11-01T08:21:42.560Z,9.279841
2022-11-01T08:22:42.651Z,9.279928
2022-11-01T08:23:42.510Z,9.280016
2022-11-01T08:24:42.493Z,9.280046
2022-11-01T08:25:42.472Z,9.279963
2022-11-01T08:26:44.068Z,9.280035
2022-11-01T08:27:42.457Z,9.280095
2022-11-01T08:28:43.028Z,9.280206
2022-11-01T08:29:42.383Z,9.280253
2022-11-01T08:30:42.359Z,9.280070
2022-11-01T08:31:42.339Z,9.280070
2022-11-01T08:32:42.346Z,9.280093
2022-11-01T08:33:43.222Z,9.280128
2022-11-01T08:34:42.276Z,9.279804
2022-11-01T08:35:47.262Z,9.279780
2022-11-01T08:36:45.210Z,9.279814
2022-11-01T08:37:43.573Z,9.279794
2022-11-01T08:38:42.188Z,9.279878
2022-11-01T08:39:42.173Z,9.279694
2022-11-01T08:40:42.156Z,9.279798
2022-11-01T08:41:42.119Z,9.279921
2022-11-01T08:42:42.645Z,9.279881
2022-11-01T08:43:43.065Z,9.280104
2022-11-01T08:44:42.061Z,9.280189
2022-11-01T08:45:42.039Z,9.280085
2022-11-01T08:46:42.016Z,9.279943
2022-11-01T08:47:42.680Z,9.280042
2022-11-01T08:48:41.970Z,9.280097
2022-11-01T08:49:41.949Z,9.280103
2022-11-01T08:50:41.927Z,9.280102
2022-11-01T08:51:41.902Z,9.280021
2022-11-01T08:52:41.914Z,9.279995
2022-11-01T08:53:41.865Z,9.279909
2022-11-01T08:54:41.844Z,9.279890
2022-11-01T08:55:41.926Z,9.279890
2022-11-01T08:56:41.804Z,9.279995
2022-11-01T08:57:42.564Z,9.280035
2022-11-01T08:58:41.752Z,9.280066
2022-11-01T08:59:41.737Z,9.279989
2022-11-01T09:00:41.719Z,9.279938
2022-11-01T09:01:41.845Z,9.279982
2022-11-01T09:02:41.702Z,9.280020
2022-11-01T09:03:41.657Z,9.280016
2022-11-01T09:04:41.636Z,9.280002
2022-11-01T09:05:42.177Z,9.280066
2022-11-01T09:06:41.605Z,9.279978
2022-11-01T09:07:42.177Z,9.279848
2022-11-01T09:08:41.565Z,9.279976
2022-11-01T09:09:41.677Z,9.279999
2022-11-01T09:10:41.544Z,9.279776
2022-11-01T09:11:41.496Z,9.279684
2022-11-01T09:12:41.552Z,9.279944
2022-11-01T09:13:41.458Z,9.280143
2022-11-01T09:14:41.440Z,9.280010
2022-11-01T09:15:41.419Z,9.280111
2022-11-01T09:16:41.396Z,9.280109
2022-11-01T09:17:41.403Z,9.280012
2022-11-01T09:18:41.358Z,9.279694
2022-11-01T09:19:41.340Z,9.279884
2022-11-01T09:20:41.320Z,9.279829
2022-11-01T09:21:41.294Z,9.279972
2022-11-01T09:22:41.300Z,9.280122
2022-11-01T09:23:41.257Z,9.280023
2022-11-01T09:24:41.244Z,9.279930
2022-11-01T09:25:41.273Z,9.279977
2022-11-01T09:26:41.206Z,9.279804
2022-11-01T09:27:41.205Z,9.279823
2022-11-01T09:28:41.163Z,9.279980
2022-11-01T09:29:41.149Z,9.279962
2022-11-01T09:30:49.657Z,9.279980
2022-11-01T09:31:43.100Z,9.280051
2022-11-01T09:32:41.111Z,9.280087
2022-11-01T09:33:41.053Z,9.280047
2022-11-01T09:34:41.040Z,9.280066
2022-11-01T09:35:41.024Z,9.280006
2022-11-01T09:36:40.998Z,9.280003
2022-11-01T09:37:41.005Z,9.280030
2022-11-01T09:38:40.964Z,9.279997
2022-11-01T09:39:40.944Z,9.280036
2022-11-01T09:40:40.919Z,9.280020
2022-11-01T09:41:40.896Z,9.279950
2022-11-01T09:42:40.917Z,9.280041
2022-11-01T09:43:40.860Z,9.279967
2022-11-01T09:44:40.865Z,9.279969
2022-11-01T09:45:40.824Z,9.280092
2022-11-01T09:46:40.843Z,9.280077
2022-11-01T09:47:40.847Z,9.279919
2022-11-01T09:48:40.792Z,9.279958
2022-11-01T09:49:40.939Z,9.279966
2022-11-01T09:50:41.016Z,9.279900
2022-11-01T09:51:40.697Z,9.279932
2022-11-01T09:52:40.713Z,9.279997
2022-11-01T09:53:41.374Z,9.279922
2022-11-01T09:54:40.922Z,9.279912
2022-11-01T09:55:41.791Z,9.279946
2022-11-01T09:56:40.599Z,9.280038
2022-11-01T09:57:40.609Z,9.279992
2022-11-01T09:58:40.563Z,9.279946
2022-11-01T09:59:40.545Z,9.279967
2022-11-01T10:00:40.656Z,9.280080
2022-11-01T10:01:41.820Z,9.280069
2022-11-01T10:02:40.536Z,9.280078
2022-11-01T10:03:40.470Z,9.280074
2022-11-01T10:04:40.455Z,9.279951
2022-11-01T10:05:40.437Z,9.279983
2022-11-01T10:06:40.416Z,9.280041
2022-11-01T10:07:40.447Z,9.280062
2022-11-01T10:08:40.406Z,9.279994
2022-11-01T10:09:40.363Z,9.279927
2022-11-01T10:10:40.598Z,9.280004
2022-11-01T10:11:40.322Z,9.279962
2022-11-01T10:12:40.333Z,9.279962
2022-11-01T10:13:40.306Z,9.279948
2022-11-01T10:14:40.314Z,9.279967
2022-11-01T10:15:40.263Z,9.279938
2022-11-01T10:16:40.223Z,9.279901
2022-11-01T10:17:41.245Z,9.279879
2022-11-01T10:18:41.280Z,9.279822
2022-11-01T10:19:40.177Z,9.279832
2022-11-01T10:20:40.226Z,9.279893
2022-11-01T10:21:40.137Z,9.279937
2022-11-01T10:22:40.148Z,9.279959
2022-11-01T10:23:40.263Z,9.279977
2022-11-01T10:24:40.098Z,9.279871
2022-11-01T10:25:40.796Z,9.279865
2022-11-01T10:26:40.050Z,9.279900
2022-11-01T10:27:40.439Z,9.279982
2022-11-01T10:28:40.005Z,9.280022
2022-11-01T10:29:40.014Z,9.279974
2022-11-01T10:30:39.973Z,9.279945
2022-11-01T10:31:39.949Z,9.279883
2022-11-01T10:32:39.963Z,9.279907
2022-11-01T10:33:39.911Z,9.279927
2022-11-01T10:34:40.551Z,9.279944
2022-11-01T10:35:40.005Z,9.279868
2022-11-01T10:36:39.863Z,9.279914
2022-11-01T10:37:47.234Z,9.279962
2022-11-01T10:39:10.758Z,9.279954
2022-11-01T10:39:54.752Z,9.279898
2022-11-01T10:40:41.849Z,9.279959
2022-11-01T10:41:39.768Z,9.279945
2022-11-01T10:42:39.809Z,9.279914
2022-11-01T10:43:39.757Z,9.279850
2022-11-01T10:44:39.759Z,9.279858
2022-11-01T10:45:44.952Z,9.279887
2022-11-01T10:46:41.676Z,9.279881
2022-11-01T10:47:39.686Z,9.279899
2022-11-01T10:48:39.638Z,9.279900
2022-11-01T10:50:00.610Z,9.279891
2022-11-01T10:50:41.597Z,9.279943
2022-11-01T10:51:39.585Z,9.279963
2022-11-01T10:52:39.603Z,9.279884
2022-11-01T10:53:39.569Z,9.279863
2022-11-01T10:54:39.545Z,9.279905
2022-11-01T10:55:39.513Z,9.279865
2022-11-01T10:56:39.508Z,9.279912
2022-11-01T10:57:39.511Z,9.279831
2022-11-01T10:58:39.475Z,9.279893
2022-11-01T10:59:39.458Z,9.279848
2022-11-01T11:00:39.479Z,9.279783
2022-11-01T11:01:39.627Z,9.279872
2022-11-01T11:02:39.464Z,9.279886
2022-11-01T11:03:39.385Z,9.279933
2022-11-01T11:04:39.346Z,9.279899
2022-11-01T11:05:39.343Z,9.279925
2022-11-01T11:06:39.303Z,9.279959
2022-11-01T11:07:39.286Z,9.280010
2022-11-01T11:08:39.305Z,9.279924
2022-11-01T11:09:39.259Z,9.279875
2022-11-01T11:10:39.228Z,9.279856
2022-11-01T11:11:39.217Z,9.279875
2022-11-01T11:12:39.213Z,9.279869
2022-11-01T11:13:39.208Z,9.279804
2022-11-01T11:14:39.171Z,9.279820
2022-11-01T11:15:39.141Z,9.279912
2022-11-01T11:16:39.159Z,9.279943
2022-11-01T11:17:39.086Z,9.279990
2022-11-01T11:18:39.205Z,9.279735
2022-11-01T11:19:39.110Z,9.279762
2022-11-01T11:20:39.056Z,9.279837
2022-11-01T11:21:39.032Z,9.279795
2022-11-01T11:22:39.039Z,9.279836
2022-11-01T11:23:39.014Z,9.279877
2022-11-01T11:24:39.043Z,9.280036
2022-11-01T11:25:38.953Z,9.280042
2022-11-01T11:26:39.222Z,9.280030
2022-11-01T11:27:38.925Z,9.279988
2022-11-01T11:28:38.920Z,9.279997
2022-11-01T11:29:38.874Z,9.279919
2022-11-01T11:30:38.866Z,9.279844
2022-11-01T11:31:38.844Z,9.279869
2022-11-01T11:32:38.833Z,9.279852
2022-11-01T11:33:38.826Z,9.279877
2022-11-01T11:34:38.777Z,9.279887
2022-11-01T11:35:38.763Z,9.279902
2022-11-01T11:36:40.887Z,9.279985
2022-11-01T11:37:38.724Z,9.280009
2022-11-01T11:38:39.568Z,9.279856
2022-11-01T11:39:39.542Z,9.279863
2022-11-01T11:40:38.653Z,9.279970
2022-11-01T11:41:39.665Z,9.279906
2022-11-01T11:42:38.624Z,9.279902
2022-11-01T11:43:38.633Z,9.279957
2022-11-01T11:44:38.590Z,9.279934
2022-11-01T11:45:38.565Z,9.279902